Time;durP1;ratioP1;P1;durP2;ratioP2;P2;SDS_P1;SDS_P2;PMS_P1;PMS_P2;Temp;Humidity;BMP_temperature;BMP_pressure;BME280_temperature;BME280_humidity;BME280_pressure;Samples;Min_cycle;Max_cycle;Signal;HPM_P1;HPM_P2
2022/08/29 00:02:11;;;;;;;4.60;4.20;;;18.00;99.90;;;;;;5073298;28;20602;-53
2022/08/29 00:04:40;;;;;;;3.60;3.40;;;18.00;99.90;;;;;;5074188;28;20190;-53
2022/08/29 00:07:07;;;;;;;3.43;3.33;;;17.90;99.90;;;;;;5073346;28;20217;-54
2022/08/29 00:09:34;;;;;;;3.33;3.07;;;17.80;99.90;;;;;;5074318;28;20201;-53
2022/08/29 00:12:00;;;;;;;4.33;4.13;;;17.80;99.90;;;;;;5074392;28;20250;-53
2022/08/29 00:14:27;;;;;;;3.03;2.93;;;17.80;99.90;;;;;;5070996;28;20214;-53
2022/08/29 00:16:54;;;;;;;3.67;3.50;;;17.80;99.90;;;;;;5071803;28;20274;-53
2022/08/29 00:19:21;;;;;;;4.37;4.07;;;17.80;99.90;;;;;;5068690;28;20589;-53
2022/08/29 00:21:50;;;;;;;3.87;3.70;;;17.70;99.90;;;;;;5073195;28;20263;-53
2022/08/29 00:24:17;;;;;;;3.27;3.17;;;17.60;99.90;;;;;;5067506;28;20604;-53
2022/08/29 00:26:44;;;;;;;4.43;4.23;;;17.60;99.90;;;;;;5072660;28;20301;-53
2022/08/29 00:29:11;;;;;;;3.57;3.33;;;17.50;99.90;;;;;;5073441;28;20292;-54
2022/08/29 00:31:38;;;;;;;4.00;3.67;;;17.50;99.90;;;;;;5073900;28;20204;-53
2022/08/29 00:34:05;;;;;;;3.67;3.47;;;17.50;99.90;;;;;;5073687;28;20597;-53
2022/08/29 00:36:32;;;;;;;4.10;3.90;;;17.40;99.90;;;;;;5073654;28;20275;-53
2022/08/29 00:39:00;;;;;;;4.07;3.77;;;17.40;99.90;;;;;;5073953;28;20768;-53
2022/08/29 00:41:27;;;;;;;4.27;4.07;;;17.40;99.90;;;;;;5072793;28;20201;-53
2022/08/29 00:43:54;;;;;;;4.67;4.47;;;17.40;99.90;;;;;;5073404;28;20198;-53
2022/08/29 00:46:47;;;;;;;4.47;4.27;;;17.40;99.90;;;;;;5073566;28;20225;-53
2022/08/29 00:49:23;;;;;;;4.20;3.93;;;17.30;99.90;;;;;;5065950;28;20228;-54
2022/08/29 00:51:52;;;;;;;4.23;4.03;;;17.30;99.90;;;;;;5072565;28;20266;-53
2022/08/29 00:54:22;;;;;;;4.90;4.53;;;17.30;99.90;;;;;;5073024;28;20615;-53
2022/08/29 00:56:50;;;;;;;4.53;4.30;;;17.30;99.90;;;;;;5073526;28;20225;-53
2022/08/29 00:59:20;;;;;;;4.73;4.53;;;17.40;99.90;;;;;;5073159;28;20315;-53
2022/08/29 01:01:47;;;;;;;4.27;4.07;;;17.30;99.90;;;;;;5073113;28;20567;-54
2022/08/29 01:04:15;;;;;;;4.80;4.57;;;17.30;99.90;;;;;;5070086;28;20247;-53
2022/08/29 01:06:43;;;;;;;5.27;4.97;;;17.30;99.90;;;;;;5072381;28;20221;-54
2022/08/29 01:09:11;;;;;;;4.10;3.80;;;17.30;99.90;;;;;;5073052;28;20255;-53
2022/08/29 01:14:26;;;;;;;5.17;4.87;;;17.20;99.90;;;;;;5072843;28;20246;-53
2022/08/29 01:16:55;;;;;;;4.00;3.80;;;17.20;99.90;;;;;;5071887;28;20228;-54
2022/08/29 01:19:35;;;;;;;4.67;4.43;;;17.20;99.90;;;;;;5067273;28;20217;-54
2022/08/29 01:22:13;;;;;;;5.10;4.70;;;17.20;99.90;;;;;;5068974;28;20209;-54
2022/08/29 01:24:49;;;;;;;4.33;4.10;;;17.20;99.90;;;;;;5072579;28;20240;-53
2022/08/29 01:27:18;;;;;;;4.73;4.43;;;17.30;99.90;;;;;;5072064;28;20221;-53
2022/08/29 01:29:45;;;;;;;3.90;3.70;;;17.30;99.90;;;;;;5072432;28;20276;-53
2022/08/29 01:32:13;;;;;;;5.43;5.03;;;17.30;99.90;;;;;;5072694;28;20740;-53
2022/08/29 01:34:40;;;;;;;5.07;4.63;;;17.20;99.90;;;;;;5071569;28;20635;-54
2022/08/29 01:37:10;;;;;;;5.13;4.60;;;17.20;99.90;;;;;;5071216;28;20657;-53
2022/08/29 01:39:39;;;;;;;5.70;5.40;;;17.20;99.90;;;;;;5071219;28;20298;-53
2022/08/29 01:42:09;;;;;;;5.07;4.60;;;17.20;99.90;;;;;;5064695;28;20232;-54
2022/08/29 01:44:37;;;;;;;5.07;4.73;;;17.20;99.90;;;;;;5072229;28;20593;-54
2022/08/29 01:47:05;;;;;;;6.03;5.63;;;17.30;99.90;;;;;;5071494;28;20321;-53
2022/08/29 01:49:33;;;;;;;5.50;5.20;;;17.30;99.90;;;;;;5068763;28;20239;-53
2022/08/29 01:52:02;;;;;;;6.30;6.00;;;17.20;99.90;;;;;;5070437;28;20220;-53
2022/08/29 01:54:29;;;;;;;5.17;4.83;;;17.20;99.90;;;;;;5069648;28;20280;-53
2022/08/29 01:56:56;;;;;;;4.97;4.63;;;17.10;99.90;;;;;;5071918;28;20245;-53
2022/08/29 01:59:26;;;;;;;5.17;4.87;;;17.00;99.90;;;;;;5071088;28;20217;-53
2022/08/29 02:01:58;;;;;;;5.27;4.90;;;17.00;99.90;;;;;;5066423;28;20228;-53
2022/08/29 02:04:26;;;;;;;6.00;5.43;;;17.00;99.90;;;;;;5067459;28;20208;-53
2022/08/29 02:06:54;;;;;;;5.93;5.53;;;16.90;99.90;;;;;;5071865;28;20605;-53
2022/08/29 02:09:21;;;;;;;5.27;4.80;;;17.00;99.90;;;;;;5069966;28;20190;-54
2022/08/29 02:11:48;;;;;;;5.93;5.43;;;17.00;99.90;;;;;;5071749;28;20536;-54
2022/08/29 02:14:16;;;;;;;5.63;5.33;;;16.90;99.90;;;;;;5071702;28;20574;-54
2022/08/29 02:16:44;;;;;;;6.50;5.03;;;16.80;99.90;;;;;;5071205;28;20240;-53
2022/08/29 02:19:11;;;;;;;5.43;5.13;;;16.80;99.90;;;;;;5071893;28;20246;-53
2022/08/29 02:21:38;;;;;;;5.70;5.23;;;16.70;99.90;;;;;;5071875;28;20208;-53
2022/08/29 02:24:06;;;;;;;6.60;6.10;;;16.70;99.90;;;;;;5071513;28;20246;-53
2022/08/29 02:26:34;;;;;;;6.00;5.43;;;16.60;99.90;;;;;;5068754;28;20713;-53
2022/08/29 02:29:01;;;;;;;5.77;5.37;;;16.60;99.90;;;;;;5070319;28;20242;-53
2022/08/29 02:31:28;;;;;;;7.53;7.03;;;16.60;99.90;;;;;;5071542;28;20728;-53
2022/08/29 02:33:57;;;;;;;8.20;7.63;;;16.60;99.90;;;;;;5071576;28;20201;-53
2022/08/29 02:36:25;;;;;;;7.70;7.17;;;16.60;99.90;;;;;;5071728;28;20275;-53
2022/08/29 02:38:52;;;;;;;6.80;6.30;;;16.60;99.90;;;;;;5071208;28;20229;-54
2022/08/29 02:41:18;;;;;;;8.00;7.30;;;16.60;99.90;;;;;;5061062;28;20279;-53
2022/08/29 02:43:46;;;;;;;6.87;6.40;;;16.60;99.90;;;;;;5061476;28;20197;-53
2022/08/29 02:46:15;;;;;;;7.33;6.63;;;16.60;99.90;;;;;;5057080;28;20314;-54
2022/08/29 02:48:43;;;;;;;7.53;6.93;;;16.60;99.90;;;;;;5058315;28;20197;-53
2022/08/29 02:51:20;;;;;;;7.93;7.13;;;16.60;99.90;;;;;;5058334;28;20236;-53
2022/08/29 02:53:47;;;;;;;6.93;6.53;;;16.60;99.90;;;;;;5054226;28;20236;-54
2022/08/29 02:56:14;;;;;;;6.17;5.80;;;16.50;99.90;;;;;;5052084;28;20213;-53
2022/08/29 02:58:41;;;;;;;6.17;5.77;;;16.40;99.90;;;;;;5054606;28;20252;-54
2022/08/29 03:01:08;;;;;;;7.70;7.10;;;16.40;99.90;;;;;;5054097;28;20194;-55
2022/08/29 03:03:35;;;;;;;6.37;5.77;;;16.40;99.90;;;;;;5069805;28;20259;-54
2022/08/29 03:06:03;;;;;;;6.97;6.37;;;16.40;99.90;;;;;;5070627;28;20509;-53
2022/08/29 03:08:31;;;;;;;7.57;6.87;;;16.40;99.90;;;;;;5057744;28;20194;-53
2022/08/29 03:10:58;;;;;;;6.33;5.83;;;16.30;99.90;;;;;;5063664;28;20247;-53
2022/08/29 03:13:25;;;;;;;6.70;6.07;;;16.30;99.90;;;;;;5065847;28;20251;-53
2022/08/29 03:15:52;;;;;;;6.37;5.97;;;16.30;99.90;;;;;;5062993;28;20309;-53
2022/08/29 03:18:19;;;;;;;5.73;5.40;;;16.30;99.90;;;;;;5052329;28;21012;-53
2022/08/29 03:20:46;;;;;;;6.87;6.27;;;16.30;99.90;;;;;;5070194;28;20556;-53
2022/08/29 03:23:14;;;;;;;6.93;6.50;;;16.40;99.90;;;;;;5069827;28;20704;-54
2022/08/29 03:25:42;;;;;;;7.33;6.73;;;16.40;99.90;;;;;;5070328;28;20221;-53
2022/08/29 03:28:09;;;;;;;6.33;5.93;;;16.40;99.90;;;;;;5070445;28;20281;-53
2022/08/29 03:30:36;;;;;;;6.13;5.70;;;16.40;99.90;;;;;;5057287;28;20288;-53
2022/08/29 03:33:07;;;;;;;7.40;6.87;;;16.30;99.90;;;;;;5055273;28;20268;-54
2022/08/29 03:35:34;;;;;;;6.50;6.10;;;16.30;99.90;;;;;;5054597;28;20695;-53
2022/08/29 03:38:01;;;;;;;5.40;5.10;;;16.30;99.90;;;;;;5070257;28;20193;-54
2022/08/29 03:40:28;;;;;;;7.33;5.80;;;16.30;99.90;;;;;;5059456;28;20198;-54
2022/08/29 03:42:56;;;;;;;7.10;6.50;;;16.30;99.90;;;;;;5051104;28;20663;-54
2022/08/29 03:45:24;;;;;;;6.47;5.57;;;16.20;99.90;;;;;;5061106;28;20213;-53
2022/08/29 03:47:52;;;;;;;7.83;6.17;;;16.20;99.90;;;;;;5057438;28;20552;-54
2022/08/29 03:50:23;;;;;;;6.50;6.00;;;16.20;99.90;;;;;;5051427;28;20586;-53
2022/08/29 03:52:50;;;;;;;6.87;6.37;;;16.20;99.90;;;;;;5051566;28;20860;-53
2022/08/29 03:55:18;;;;;;;6.57;6.03;;;16.10;99.90;;;;;;5051077;28;20540;-53
2022/08/29 03:57:45;;;;;;;5.47;5.10;;;16.20;99.90;;;;;;5058624;28;20256;-53
2022/08/29 04:00:16;;;;;;;6.73;6.23;;;16.10;99.90;;;;;;5069907;28;20309;-54
2022/08/29 04:02:46;;;;;;;9.50;8.70;;;16.10;99.90;;;;;;5066676;28;20258;-53
2022/08/29 04:05:14;;;;;;;9.37;8.53;;;16.10;99.90;;;;;;5061802;28;20202;-54
2022/08/29 04:07:44;;;;;;;8.50;7.87;;;16.10;99.90;;;;;;5055693;28;20281;-54
2022/08/29 04:10:14;;;;;;;6.00;5.60;;;16.10;99.90;;;;;;5062390;28;20570;-54
2022/08/29 04:12:41;;;;;;;6.53;6.13;;;16.10;99.90;;;;;;5073058;28;20198;-54
2022/08/29 04:15:09;;;;;;;7.83;7.20;;;16.10;99.90;;;;;;5072771;28;20197;-53
2022/08/29 04:17:38;;;;;;;6.53;5.90;;;16.10;99.90;;;;;;5070620;28;20197;-53
2022/08/29 04:20:06;;;;;;;6.73;6.03;;;16.10;99.90;;;;;;5057429;28;20226;-53
2022/08/29 04:22:36;;;;;;;6.70;5.93;;;16.00;99.90;;;;;;5056245;28;20606;-53
2022/08/29 04:25:05;;;;;;;7.67;6.97;;;16.00;99.90;;;;;;5054407;28;20202;-53
2022/08/29 04:27:32;;;;;;;6.07;5.67;;;16.00;99.90;;;;;;5064984;28;20225;-53
2022/08/29 04:29:59;;;;;;;6.57;6.07;;;16.00;99.90;;;;;;5072998;28;20659;-53
2022/08/29 04:32:27;;;;;;;6.27;5.60;;;16.00;99.90;;;;;;5054065;28;20198;-53
2022/08/29 04:34:57;;;;;;;6.23;5.63;;;16.00;99.90;;;;;;5055255;28;20201;-53
2022/08/29 04:37:24;;;;;;;6.63;6.03;;;16.10;99.90;;;;;;5054719;28;20221;-53
2022/08/29 04:39:51;;;;;;;6.43;6.03;;;16.00;99.90;;;;;;5054186;28;20222;-53
2022/08/29 04:42:18;;;;;;;6.20;5.80;;;16.00;99.90;;;;;;5061454;28;20256;-53
2022/08/29 04:44:47;;;;;;;7.03;6.07;;;16.00;99.90;;;;;;5063796;28;20230;-54
2022/08/29 04:47:14;;;;;;;6.73;6.23;;;15.90;99.90;;;;;;5053826;28;20324;-53
2022/08/29 04:49:42;;;;;;;6.57;6.17;;;15.90;99.90;;;;;;5061530;28;20194;-54
2022/08/29 04:52:12;;;;;;;6.73;6.23;;;16.00;99.90;;;;;;5054429;28;20230;-56
2022/08/29 04:54:39;;;;;;;7.03;6.43;;;16.00;99.90;;;;;;5054987;28;20742;-53
2022/08/29 04:57:07;;;;;;;5.40;5.10;;;16.00;99.90;;;;;;5053648;28;20220;-53
2022/08/29 04:59:34;;;;;;;6.00;5.57;;;16.00;99.90;;;;;;5053679;28;20221;-53
2022/08/29 05:02:01;;;;;;;7.07;6.43;;;16.00;99.90;;;;;;5055667;28;20202;-53
2022/08/29 05:04:29;;;;;;;6.67;6.27;;;16.00;99.90;;;;;;5063839;28;20204;-53
2022/08/29 05:06:56;;;;;;;8.07;6.97;;;16.10;99.90;;;;;;5061842;28;20247;-53
2022/08/29 05:09:24;;;;;;;7.43;6.87;;;16.10;99.90;;;;;;5059016;28;20197;-53
2022/08/29 05:11:51;;;;;;;6.67;6.23;;;16.10;99.90;;;;;;5057157;28;20197;-53
2022/08/29 05:14:18;;;;;;;7.37;6.60;;;16.20;99.90;;;;;;5064547;28;20225;-53
2022/08/29 05:16:47;;;;;;;6.40;5.80;;;16.30;99.90;;;;;;5059012;28;20225;-54
2022/08/29 05:19:15;;;;;;;6.30;5.67;;;16.40;99.90;;;;;;5057217;28;20275;-53
2022/08/29 05:21:43;;;;;;;7.87;7.20;;;16.40;99.90;;;;;;5053456;28;20194;-53
2022/08/29 05:24:12;;;;;;;7.20;6.63;;;16.50;99.90;;;;;;5067808;28;20210;-53
2022/08/29 05:26:44;;;;;;;7.17;6.57;;;16.60;99.90;;;;;;5057845;28;20263;-53
2022/08/29 05:29:12;;;;;;;5.77;5.47;;;16.70;99.90;;;;;;5053432;28;20650;-53
2022/08/29 05:31:40;;;;;;;6.60;6.10;;;16.90;99.90;;;;;;5064502;28;20213;-53
2022/08/29 05:34:09;;;;;;;6.20;5.70;;;17.00;99.90;;;;;;5065289;28;20241;-53
2022/08/29 05:36:36;;;;;;;7.13;6.60;;;17.30;99.90;;;;;;5057874;28;20304;-53
2022/08/29 05:39:04;;;;;;;6.93;6.37;;;17.80;99.90;;;;;;5057398;28;20296;-53
2022/08/29 05:41:31;;;;;;;6.80;6.30;;;18.40;99.90;;;;;;5066859;28;20240;-53
2022/08/29 05:43:59;;;;;;;7.33;6.73;;;19.00;99.90;;;;;;5060524;28;20278;-53
2022/08/29 05:46:26;;;;;;;5.20;4.80;;;19.50;99.90;;;;;;5052899;28;20221;-54
2022/08/29 05:48:53;;;;;;;5.57;5.07;;;20.20;99.90;;;;;;5062613;28;20202;-54
2022/08/29 05:51:23;;;;;;;6.63;6.10;;;21.00;99.90;;;;;;5071335;28;20193;-54
2022/08/29 05:53:50;;;;;;;4.97;4.57;;;21.80;99.90;;;;;;5069922;28;20745;-54
2022/08/29 05:56:24;;;;;;;6.10;5.50;;;22.40;99.90;;;;;;5066580;28;20762;-54
2022/08/29 05:58:51;;;;;;;6.30;5.90;;;23.00;99.90;;;;;;5070459;28;20262;-54
2022/08/29 06:01:24;;;;;;;6.50;5.87;;;23.70;99.90;;;;;;5065479;28;20230;-54
2022/08/29 06:03:51;;;;;;;5.50;4.93;;;24.30;99.90;;;;;;5057875;28;20198;-56
2022/08/29 06:06:20;;;;;;;5.80;4.63;;;24.70;99.90;;;;;;5052127;28;20214;-54
2022/08/29 06:08:48;;;;;;;8.03;5.80;;;25.50;99.90;;;;;;5062149;28;20283;-54
2022/08/29 06:11:16;;;;;;;5.50;5.10;;;26.00;99.90;;;;;;5052551;28;20316;-56
2022/08/29 06:13:43;;;;;;;5.00;4.67;;;26.40;99.90;;;;;;5062592;28;20202;-56
2022/08/29 06:16:14;;;;;;;4.47;4.18;;;26.50;99.90;;;;;;5055009;28;20243;-56
2022/08/29 06:18:43;;;;;;;4.35;4.05;;;26.70;99.90;;;;;;5056414;28;20242;-56
2022/08/29 06:21:11;;;;;;;5.05;4.85;;;27.20;99.90;;;;;;5052270;28;20222;-56
2022/08/29 06:23:39;;;;;;;4.68;4.35;;;27.60;99.90;;;;;;5051464;28;20194;-56
2022/08/29 06:26:07;;;;;;;4.60;4.43;;;27.90;99.90;;;;;;5059897;28;20287;-56
2022/08/29 06:28:35;;;;;;;5.13;4.82;;;28.30;99.90;;;;;;5066404;28;20238;-56
2022/08/29 06:31:07;;;;;;;5.25;4.95;;;28.80;99.90;;;;;;5057607;28;20193;-56
2022/08/29 06:33:34;;;;;;;4.60;4.43;;;28.80;99.90;;;;;;5055567;28;20259;-56
2022/08/29 06:36:03;;;;;;;4.75;4.50;;;29.30;99.90;;;;;;5058283;28;20275;-55
2022/08/29 06:38:30;;;;;;;4.65;4.45;;;29.30;99.90;;;;;;5058085;28;20220;-62
2022/08/29 06:41:01;;;;;;;4.35;4.00;;;29.70;99.90;;;;;;5071567;28;20497;-62
2022/08/29 06:43:28;;;;;;;3.97;3.80;;;29.70;99.90;;;;;;5071531;28;20202;-64
2022/08/29 06:45:55;;;;;;;4.85;4.65;;;30.10;99.90;;;;;;5070450;28;20760;-65
2022/08/29 06:48:22;;;;;;;4.30;4.10;;;30.20;99.90;;;;;;5070726;28;20201;-67
2022/08/29 06:50:49;;;;;;;4.57;4.22;;;30.60;99.90;;;;;;5071982;28;20616;-55
2022/08/29 06:53:18;;;;;;;6.97;4.15;;;30.40;99.90;;;;;;5071511;28;20205;-52
2022/08/29 06:55:45;;;;;;;4.72;4.43;;;30.60;99.90;;;;;;5071529;28;20729;-49
2022/08/29 06:58:13;;;;;;;4.63;4.20;;;30.60;99.90;;;;;;5070721;28;20251;-52
2022/08/29 07:00:40;;;;;;;4.50;4.18;;;31.10;99.90;;;;;;5070208;28;20741;-51
2022/08/29 07:03:07;;;;;;;4.60;4.40;;;31.50;99.90;;;;;;5071397;28;20272;-50
2022/08/29 07:05:34;;;;;;;4.30;4.10;;;31.50;99.90;;;;;;5070974;28;20248;-52
2022/08/29 07:08:01;;;;;;;4.47;4.20;;;30.80;99.90;;;;;;5071419;28;20193;-50
2022/08/29 07:10:29;;;;;;;5.40;4.85;;;31.10;99.90;;;;;;5070666;28;20254;-51
2022/08/29 07:12:57;;;;;;;4.75;4.45;;;31.20;99.90;;;;;;5070952;28;20274;-51
2022/08/29 07:15:24;;;;;;;4.97;4.78;;;31.50;99.90;;;;;;5071358;28;20237;-50
2022/08/29 07:17:51;;;;;;;4.55;4.45;;;31.30;99.90;;;;;;5060897;28;20655;-51
2022/08/29 07:20:18;;;;;;;4.32;4.03;;;31.40;99.90;;;;;;5064218;28;20267;-50
2022/08/29 07:22:49;;;;;;;4.53;4.25;;;31.70;99.90;;;;;;5053870;28;20247;-50
2022/08/29 07:25:17;;;;;;;4.85;4.50;;;31.60;99.90;;;;;;5061524;28;20208;-51
2022/08/29 07:27:46;;;;;;;5.65;5.35;;;30.60;99.90;;;;;;5051294;28;20197;-50
2022/08/29 07:30:15;;;;;;;6.60;6.05;;;30.60;99.90;;;;;;5051601;28;20285;-51
2022/08/29 07:32:43;;;;;;;5.30;4.93;;;30.20;99.90;;;;;;5053485;28;20221;-50
2022/08/29 07:35:12;;;;;;;12.25;6.28;;;30.90;99.90;;;;;;5066668;28;20197;-51
2022/08/29 07:37:39;;;;;;;4.88;4.68;;;31.10;99.90;;;;;;5071719;28;20223;-49
2022/08/29 07:40:07;;;;;;;5.03;4.40;;;30.80;99.90;;;;;;5073311;28;20304;-51
2022/08/29 07:42:34;;;;;;;4.50;4.30;;;31.20;99.90;;;;;;5071913;28;20663;-50
2022/08/29 07:45:04;;;;;;;5.50;5.05;;;31.20;99.90;;;;;;5065219;28;20614;-51
2022/08/29 07:47:31;;;;;;;5.30;5.10;;;31.30;99.90;;;;;;5073886;28;20205;-50
2022/08/29 07:50:00;;;;;;;8.55;4.97;;;31.50;99.90;;;;;;5068644;28;20194;-51
2022/08/29 07:52:27;;;;;;;4.07;3.90;;;31.40;99.90;;;;;;5073704;28;20205;-50
2022/08/29 07:54:54;;;;;;;4.72;4.53;;;31.30;99.90;;;;;;5070020;28;20235;-51
2022/08/29 07:57:21;;;;;;;5.82;5.45;;;31.70;99.90;;;;;;5073716;28;20225;-51
2022/08/29 07:59:49;;;;;;;4.72;4.53;;;31.70;99.90;;;;;;5073734;28;20627;-51
2022/08/29 08:02:17;;;;;;;5.25;5.03;;;32.30;99.90;;;;;;5072950;28;20197;-50
2022/08/29 08:04:45;;;;;;;4.65;4.35;;;32.70;99.90;;;;;;5070990;28;20201;-50
2022/08/29 08:07:13;;;;;;;5.30;5.10;;;32.70;99.90;;;;;;5073418;28;20217;-51
2022/08/29 08:09:39;;;;;;;5.18;4.78;;;32.50;99.90;;;;;;5074334;28;20642;-51
2022/08/29 08:12:08;;;;;;;5.57;5.28;;;32.10;99.90;;;;;;5074052;28;20678;-51
2022/08/29 08:14:35;;;;;;;5.38;5.10;;;32.00;99.90;;;;;;5073427;28;20270;-50
2022/08/29 08:17:03;;;;;;;4.53;4.30;;;32.20;99.90;;;;;;5063354;28;20225;-50
2022/08/29 08:19:32;;;;;;;4.60;4.40;;;32.70;99.90;;;;;;5064268;28;20236;-50
2022/08/29 08:21:59;;;;;;;4.05;3.95;;;32.80;99.90;;;;;;5071846;28;20720;-51
2022/08/29 08:24:25;;;;;;;3.90;3.80;;;31.90;99.90;;;;;;5069763;28;21413;-51
2022/08/29 08:26:52;;;;;;;5.53;5.05;;;31.90;99.90;;;;;;5067590;28;20266;-50
2022/08/29 08:29:19;;;;;;;4.75;4.55;;;32.10;99.90;;;;;;5069164;28;20201;-51
2022/08/29 08:31:48;;;;;;;4.38;4.25;;;31.80;99.90;;;;;;5068206;28;20236;-50
2022/08/29 08:34:16;;;;;;;3.65;3.22;;;31.70;99.90;;;;;;5070220;28;20193;-50
2022/08/29 08:36:45;;;;;;;4.78;4.57;;;31.70;99.90;;;;;;5055466;28;20729;-50
2022/08/29 08:39:13;;;;;;;3.92;3.83;;;31.80;99.90;;;;;;5053413;28;20190;-51
2022/08/29 08:41:49;;;;;;;4.78;4.57;;;31.90;99.90;;;;;;5057435;28;20314;-51
2022/08/29 08:44:52;;;;;;;5.47;5.15;;;32.10;99.90;;;;;;5052973;28;20205;-50
2022/08/29 08:47:27;;;;;;;4.45;4.35;;;30.90;99.90;;;;;;5060800;28;20264;-50
2022/08/29 08:49:58;;;;;;;4.60;4.45;;;31.00;99.90;;;;;;5062030;28;20186;-51
2022/08/29 08:52:36;;;;;;;4.57;4.38;;;31.30;99.90;;;;;;5053300;28;20285;-51
2022/08/29 08:55:11;;;;;;;4.10;4.00;;;31.70;99.90;;;;;;5067785;28;20200;-49
2022/08/29 08:57:44;;;;;;;7.60;4.30;;;31.70;99.90;;;;;;5071422;28;20675;-48
2022/08/29 09:00:12;;;;;;;4.35;4.25;;;32.00;99.90;;;;;;5065926;28;20271;-51
2022/08/29 09:02:51;;;;;;;4.85;4.50;;;32.50;99.90;;;;;;5069609;28;20217;-50
2022/08/29 09:05:30;;;;;;;3.95;3.67;;;32.50;99.90;;;;;;5059569;28;20246;-51
2022/08/29 09:08:05;;;;;;;4.80;4.50;;;32.00;99.90;;;;;;5052662;28;20232;-50
2022/08/29 09:10:42;;;;;;;4.25;4.05;;;31.60;99.90;;;;;;5052585;28;20678;-52
2022/08/29 09:13:20;;;;;;;4.28;3.90;;;31.60;99.90;;;;;;5052383;28;20202;-51
2022/08/29 09:15:51;;;;;;;4.97;4.78;;;31.80;99.90;;;;;;5057443;28;20231;-50
2022/08/29 09:18:27;;;;;;;5.63;4.95;;;31.40;99.90;;;;;;5070335;28;20201;-48
2022/08/29 09:20:55;;;;;;;4.95;4.75;;;31.50;99.90;;;;;;5064064;28;20713;-48
2022/08/29 09:23:28;;;;;;;5.38;4.97;;;31.90;99.90;;;;;;5062667;28;20667;-48
2022/08/29 09:25:56;;;;;;;4.88;4.68;;;32.20;99.90;;;;;;5058531;28;20275;-49
2022/08/29 09:28:24;;;;;;;4.53;4.32;;;32.40;99.90;;;;;;5057145;28;20205;-48
2022/08/29 09:31:18;;;;;;;4.45;4.35;;;32.10;99.90;;;;;;5062601;28;20189;-49
2022/08/29 09:33:48;;;;;;;5.40;5.20;;;32.50;99.90;;;;;;5058704;28;20293;-49
2022/08/29 09:36:33;;;;;;;5.75;5.45;;;31.70;99.90;;;;;;5056529;28;20213;-49
2022/08/29 09:39:14;;;;;;;6.20;5.82;;;31.20;99.90;;;;;;5055314;28;20567;-48
2022/08/29 09:41:41;;;;;;;5.45;5.15;;;30.70;99.90;;;;;;5052768;28;20264;-49
2022/08/29 09:44:14;;;;;;;5.85;5.50;;;30.80;99.90;;;;;;5068659;28;20201;-48
2022/08/29 09:46:41;;;;;;;6.30;5.80;;;30.50;99.90;;;;;;5052797;28;20213;-49
2022/08/29 09:49:15;;;;;;;5.40;5.03;;;30.20;99.90;;;;;;5053642;28;20201;-49
2022/08/29 09:51:44;;;;;;;5.00;4.55;;;30.10;99.90;;;;;;5069609;28;20251;-48
2022/08/29 09:54:23;;;;;;;4.82;4.72;;;30.50;99.90;;;;;;5064643;28;20193;-49
2022/08/29 09:56:54;;;;;;;4.63;4.32;;;30.80;99.90;;;;;;5061227;28;20226;-49
2022/08/29 09:59:26;;;;;;;5.22;4.93;;;31.50;99.90;;;;;;5064383;28;20205;-49
2022/08/29 10:02:15;;;;;;;5.88;5.38;;;30.40;99.90;;;;;;5071692;28;20220;-49
2022/08/29 10:04:45;;;;;;;6.53;6.07;;;30.50;99.90;;;;;;5052201;28;20209;-50
2022/08/29 10:07:17;;;;;;;5.57;5.10;;;30.10;99.90;;;;;;5060234;28;20251;-51
2022/08/29 10:09:56;;;;;;;5.13;4.60;;;29.90;99.90;;;;;;5069825;28;20254;-51
2022/08/29 10:12:31;;;;;;;5.25;4.75;;;30.10;99.90;;;;;;5072253;28;20246;-51
2022/08/29 10:15:02;;;;;;;5.75;5.32;;;29.90;99.90;;;;;;5071949;28;20278;-51
2022/08/29 10:20:32;;;;;;;4.88;4.68;;;28.90;99.90;;;;;;5071027;28;20232;-48
2022/08/29 10:23:05;;;;;;;4.47;4.18;;;29.20;99.90;;;;;;5071585;28;20196;-50
2022/08/29 10:25:36;;;;;;;4.85;4.47;;;29.80;99.90;;;;;;5070426;28;20747;-51
2022/08/29 10:28:13;;;;;;;4.10;3.90;;;29.40;99.90;;;;;;5065738;28;20257;-50
2022/08/29 10:30:51;;;;;;;4.18;3.90;;;29.30;99.90;;;;;;5065322;28;20258;-49
2022/08/29 10:33:29;;;;;;;4.80;4.60;;;29.40;99.90;;;;;;5070735;28;20260;-51
2022/08/29 10:36:00;;;;;;;4.20;4.10;;;30.00;99.90;;;;;;5059262;28;20228;-51
2022/08/29 10:38:45;;;;;;;4.25;4.15;;;30.00;99.90;;;;;;5053334;28;20226;-52
2022/08/29 10:41:24;;;;;;;3.65;3.45;;;30.10;99.90;;;;;;5057893;28;20217;-51
2022/08/29 10:44:01;;;;;;;3.50;3.40;;;30.50;99.90;;;;;;5055675;28;20237;-49
2022/08/29 10:46:44;;;;;;;4.38;4.25;;;29.90;99.90;;;;;;5051634;28;20296;-48
2022/08/29 10:49:20;;;;;;;3.90;3.80;;;29.70;99.90;;;;;;5051565;28;20201;-49
2022/08/29 10:51:57;;;;;;;4.07;3.88;;;29.40;99.90;;;;;;5055254;28;20189;-49
2022/08/29 10:54:32;;;;;;;3.88;3.78;;;29.10;99.90;;;;;;5059387;28;20220;-48
2022/08/29 10:57:03;;;;;;;4.20;4.07;;;28.80;99.90;;;;;;5061303;28;20739;-50
2022/08/29 10:59:37;;;;;;;4.30;4.10;;;28.20;99.90;;;;;;5059074;28;20201;-48
2022/08/29 11:02:08;;;;;;;3.42;3.33;;;27.80;99.90;;;;;;5061637;28;20705;-49
2022/08/29 11:04:41;;;;;;;4.13;3.92;;;27.90;99.90;;;;;;5070292;28;20743;-48
2022/08/29 11:07:15;;;;;;;4.28;4.18;;;27.80;99.90;;;;;;5069840;28;20221;-48
2022/08/29 11:09:47;;;;;;;4.30;4.03;;;27.40;99.90;;;;;;5063478;28;20192;-48
2022/08/29 11:12:19;;;;;;;6.80;4.13;;;27.20;99.90;;;;;;5070216;28;20277;-48
2022/08/29 11:14:52;;;;;;;4.15;4.05;;;27.20;99.90;;;;;;5065527;28;20288;-49
2022/08/29 11:17:20;;;;;;;4.35;4.07;;;27.00;99.90;;;;;;5060078;28;20232;-48
2022/08/29 11:19:57;;;;;;;4.28;4.18;;;26.80;99.90;;;;;;5064583;28;20197;-49
2022/08/29 11:22:30;;;;;;;4.30;4.20;;;26.80;99.90;;;;;;5073668;28;20212;-49
2022/08/29 11:25:04;;;;;;;4.85;4.60;;;26.80;99.90;;;;;;5074959;28;20266;-49
2022/08/29 11:27:43;;;;;;;4.43;4.13;;;26.90;99.90;;;;;;5075213;28;20679;-48
2022/08/29 11:30:16;;;;;;;4.68;4.38;;;26.80;99.90;;;;;;5074137;28;20201;-50
2022/08/29 11:32:53;;;;;;;4.63;4.28;;;26.70;99.90;;;;;;5061691;28;20202;-49
2022/08/29 11:35:24;;;;;;;3.95;3.75;;;26.90;99.90;;;;;;5054711;28;20729;-48
2022/08/29 11:38:31;;;;;;;5.13;4.43;;;27.20;99.90;;;;;;5055210;28;20233;-49
2022/08/29 11:41:15;;;;;;;4.60;4.30;;;27.20;99.90;;;;;;5067582;28;20302;-49
2022/08/29 11:43:49;;;;;;;3.95;3.85;;;27.50;99.90;;;;;;5061591;28;20216;-49
2022/08/29 11:46:30;;;;;;;3.88;3.78;;;27.60;99.90;;;;;;5063304;28;20355;-50
2022/08/29 11:49:26;;;;;;;4.55;4.30;;;27.70;99.90;;;;;;5073033;28;20682;-49
2022/08/29 11:51:56;;;;;;;4.13;3.92;;;27.50;99.90;;;;;;5074053;28;20201;-49
2022/08/29 11:55:05;;;;;;;3.60;3.50;;;27.30;99.90;;;;;;5073664;28;20201;-51
2022/08/29 11:57:52;;;;;;;4.72;4.30;;;27.40;99.90;;;;;;5070592;28;20255;-49
2022/08/29 12:00:47;;;;;;;4.10;3.85;;;27.20;99.90;;;;;;5060367;28;20600;-49
2022/08/29 12:03:51;;;;;;;3.72;3.63;;;27.20;99.90;;;;;;5070512;28;20197;-51
2022/08/29 12:06:52;;;;;;;3.63;3.35;;;27.00;99.90;;;;;;5067871;28;20216;-48
2022/08/29 12:09:42;;;;;;;4.05;3.85;;;26.90;99.90;;;;;;5062336;28;20674;-51
2022/08/29 12:12:38;;;;;;;4.47;3.97;;;26.60;99.90;;;;;;5066079;28;20198;-51
2022/08/29 12:15:40;;;;;;;3.42;3.33;;;26.50;99.90;;;;;;5063350;28;20228;-51
2022/08/29 12:18:35;;;;;;;4.43;4.22;;;26.50;99.90;;;;;;5052240;28;20201;-51
2022/08/29 12:21:47;;;;;;;4.60;4.38;;;26.80;99.90;;;;;;5065240;28;20628;-50
2022/08/29 12:24:37;;;;;;;3.58;3.40;;;26.80;99.90;;;;;;5060810;28;20201;-50
2022/08/29 12:27:04;;;;;;;3.67;3.58;;;26.80;99.90;;;;;;5072877;28;20270;-50
2022/08/29 12:29:33;;;;;;;3.88;3.78;;;26.90;99.90;;;;;;5072737;28;20197;-48
2022/08/29 12:32:38;;;;;;;4.15;3.95;;;26.80;99.90;;;;;;5073648;28;20193;-51
2022/08/29 12:35:32;;;;;;;3.67;3.58;;;26.80;99.90;;;;;;5059936;28;20204;-51
2022/08/29 12:38:14;;;;;;;4.15;3.95;;;26.80;99.90;;;;;;5073080;28;20267;-50
2022/08/29 12:40:52;;;;;;;3.33;3.22;;;27.00;99.90;;;;;;5072923;28;20201;-50
2022/08/29 12:43:36;;;;;;;4.65;4.35;;;27.10;99.90;;;;;;5067201;28;20419;-50
2022/08/29 12:46:10;;;;;;;4.10;3.90;;;27.20;99.90;;;;;;5063282;28;20220;-51
2022/08/29 12:48:42;;;;;;;3.10;3.00;;;27.30;99.90;;;;;;5064863;28;20659;-51
2022/08/29 12:51:09;;;;;;;3.40;3.30;;;27.00;99.90;;;;;;5059828;28;20198;-51
2022/08/29 12:53:36;;;;;;;4.00;3.80;;;27.00;99.90;;;;;;5070129;28;20198;-50
2022/08/29 12:56:17;;;;;;;3.92;3.83;;;27.00;99.90;;;;;;5065446;28;20648;-48
2022/08/29 12:58:53;;;;;;;3.55;3.35;;;27.10;99.90;;;;;;5070405;28;20236;-48
2022/08/29 13:01:29;;;;;;;3.20;3.05;;;27.10;99.90;;;;;;5072422;28;20221;-49
2022/08/29 13:03:59;;;;;;;3.63;3.42;;;27.10;99.90;;;;;;5073337;28;20197;-51
2022/08/29 13:06:26;;;;;;;4.25;4.05;;;27.10;99.90;;;;;;5072528;28;20244;-49
2022/08/29 13:08:53;;;;;;;3.60;3.40;;;27.10;99.90;;;;;;5072067;28;20258;-49
2022/08/29 13:11:24;;;;;;;3.30;3.20;;;27.00;99.90;;;;;;5073305;28;20221;-51
2022/08/29 13:13:51;;;;;;;3.90;3.70;;;27.10;99.90;;;;;;5072968;28;20209;-49
2022/08/29 13:16:28;;;;;;;3.95;3.75;;;27.10;99.90;;;;;;5063340;28;20221;-48